SRR6374 LFLL-LFBO
Flight info
| Callsign | SRR6374 |
|---|---|
| Flight time | 0h 41m |
| Altitude | 27000 |
| Route | REPSI DCT LERGA DCT MINSO DCT NARAK |
| Aircraft | B77L/H-SDE1E2E3FGHIJ2J3J4J5M1RWXY/LB1D1 |
Departure
| Time | 2026-05-05 04:19 |
|---|---|
| Airport | Lyon Saint-Exupéry Airport (LFLL) |
Arrival
| Time | 2026-05-05 05:01 |
|---|---|
| Airport | Toulouse-Blagnac Airport (LFBO) |
| Time | Latitude | Longitude | Altitude | Speed | Heading |
|---|---|---|---|---|---|
| 2026-05-05 04:07 | 45.70840 | 5.08514 | 821 ft | 0 kts | 273° |
| 2026-05-05 04:08 | 45.70839 | 5.08538 | 821 ft | 4 kts | 273° |
| 2026-05-05 04:08 | 45.70838 | 5.08570 | 821 ft | 2 kts | 273° |
| 2026-05-05 04:08 | 45.70835 | 5.08607 | 819 ft | 4 kts | 288° |
| 2026-05-05 04:09 | 45.70823 | 5.08633 | 821 ft | 4 kts | 352° |
| 2026-05-05 04:09 | 45.70799 | 5.08632 | 818 ft | 4 kts | 4° |
| 2026-05-05 04:09 | 45.70789 | 5.08631 | 821 ft | 1 kts | 4° |
| 2026-05-05 04:11 | 45.70790 | 5.08631 | 821 ft | 1 kts | 4° |
| 2026-05-05 04:11 | 45.70824 | 5.08634 | 819 ft | 9 kts | 4° |
| 2026-05-05 04:11 | 45.70926 | 5.08644 | 821 ft | 17 kts | 4° |
| 2026-05-05 04:11 | 45.71035 | 5.08654 | 820 ft | 14 kts | 4° |
| 2026-05-05 04:12 | 45.71121 | 5.08620 | 821 ft | 14 kts | 313° |
| 2026-05-05 04:12 | 45.71209 | 5.08552 | 816 ft | 16 kts | 354° |
| 2026-05-05 04:12 | 45.71350 | 5.08535 | 816 ft | 25 kts | 355° |
| 2026-05-05 04:12 | 45.71540 | 5.08512 | 807 ft | 29 kts | 355° |
| 2026-05-05 04:13 | 45.71737 | 5.08488 | 807 ft | 26 kts | 355° |
| 2026-05-05 04:13 | 45.71911 | 5.08467 | 806 ft | 25 kts | 355° |
| 2026-05-05 04:13 | 45.72084 | 5.08446 | 807 ft | 25 kts | 355° |
| 2026-05-05 04:13 | 45.72257 | 5.08424 | 804 ft | 25 kts | 355° |
| 2026-05-05 04:14 | 45.72428 | 5.08403 | 801 ft | 25 kts | 355° |
| 2026-05-05 04:14 | 45.72601 | 5.08382 | 798 ft | 25 kts | 355° |
| 2026-05-05 04:14 | 45.72774 | 5.08362 | 795 ft | 25 kts | 355° |
| 2026-05-05 04:14 | 45.72947 | 5.08341 | 793 ft | 25 kts | 355° |
| 2026-05-05 04:15 | 45.73119 | 5.08320 | 790 ft | 25 kts | 355° |
| 2026-05-05 04:15 | 45.73292 | 5.08299 | 788 ft | 25 kts | 355° |
| 2026-05-05 04:15 | 45.73465 | 5.08278 | 784 ft | 25 kts | 355° |
| 2026-05-05 04:15 | 45.73637 | 5.08257 | 783 ft | 25 kts | 355° |
| 2026-05-05 04:16 | 45.73810 | 5.08236 | 780 ft | 25 kts | 355° |
| 2026-05-05 04:16 | 45.73926 | 5.08221 | 780 ft | 24 kts | 355° |
| 2026-05-05 04:16 | 45.74073 | 5.08232 | 776 ft | 14 kts | 12° |
| 2026-05-05 04:16 | 45.74170 | 5.08263 | 776 ft | 14 kts | 12° |
| 2026-05-05 04:17 | 45.74235 | 5.08285 | 777 ft | 14 kts | 14° |
| 2026-05-05 04:17 | 45.74331 | 5.08318 | 775 ft | 14 kts | 13° |
| 2026-05-05 04:17 | 45.74427 | 5.08350 | 775 ft | 14 kts | 13° |
| 2026-05-05 04:17 | 45.74555 | 5.08392 | 773 ft | 14 kts | 13° |
| 2026-05-05 04:18 | 45.74617 | 5.08419 | 772 ft | 14 kts | 32° |
| 2026-05-05 04:18 | 45.74642 | 5.08544 | 772 ft | 14 kts | 109° |
| 2026-05-05 04:18 | 45.74556 | 5.08610 | 775 ft | 20 kts | 174° |
| 2026-05-05 04:18 | 45.74287 | 5.08644 | 778 ft | 67 kts | 175° |
| 2026-05-05 04:19 | 45.73573 | 5.08731 | 785 ft | 136 kts | 175° |
| 2026-05-05 04:19 | 45.72452 | 5.08866 | 847 ft | 180 kts | 175° |
| 2026-05-05 04:19 | 45.71250 | 5.09002 | 1639 ft | 170 kts | 176° |
| 2026-05-05 04:19 | 45.70021 | 5.09135 | 2056 ft | 188 kts | 176° |
| 2026-05-05 04:20 | 45.68673 | 5.08857 | 2230 ft | 210 kts | 206° |
| 2026-05-05 04:20 | 45.67571 | 5.07375 | 2566 ft | 231 kts | 240° |
| 2026-05-05 04:20 | 45.67195 | 5.05118 | 3174 ft | 241 kts | 271° |
| 2026-05-05 04:20 | 45.67629 | 5.02796 | 3861 ft | 244 kts | 291° |
| 2026-05-05 04:21 | 45.68339 | 5.00540 | 4355 ft | 258 kts | 292° |
| 2026-05-05 04:21 | 45.69109 | 4.98177 | 4986 ft | 266 kts | 292° |
| 2026-05-05 04:21 | 45.69910 | 4.95757 | 5717 ft | 271 kts | 292° |
| 2026-05-05 04:21 | 45.70780 | 4.93343 | 6497 ft | 275 kts | 296° |
| 2026-05-05 04:22 | 45.71738 | 4.90998 | 7226 ft | 277 kts | 297° |
| 2026-05-05 04:22 | 45.72737 | 4.88615 | 7951 ft | 282 kts | 297° |
| 2026-05-05 04:22 | 45.73510 | 4.86077 | 8535 ft | 279 kts | 275° |
| 2026-05-05 04:22 | 45.73571 | 4.83332 | 9174 ft | 276 kts | 263° |
| 2026-05-05 04:23 | 45.73467 | 4.80575 | 9889 ft | 279 kts | 263° |
| 2026-05-05 04:23 | 45.73357 | 4.77770 | 10400 ft | 290 kts | 262° |
| 2026-05-05 04:23 | 45.73230 | 4.74759 | 10571 ft | 315 kts | 262° |
| 2026-05-05 04:23 | 45.73084 | 4.71518 | 10765 ft | 339 kts | 262° |
| 2026-05-05 04:24 | 45.72903 | 4.68064 | 11156 ft | 355 kts | 263° |
| 2026-05-05 04:24 | 45.72549 | 4.64537 | 11712 ft | 362 kts | 253° |
| 2026-05-05 04:24 | 45.71566 | 4.61224 | 12558 ft | 362 kts | 238° |
| 2026-05-05 04:25 | 45.68439 | 4.55511 | 14214 ft | 371 kts | 230° |
| 2026-05-05 04:25 | 45.66779 | 4.52645 | 14927 ft | 377 kts | 230° |
| 2026-05-05 04:25 | 45.65098 | 4.49734 | 15655 ft | 382 kts | 229° |
| 2026-05-05 04:25 | 45.63399 | 4.46779 | 16403 ft | 387 kts | 229° |
| 2026-05-05 04:26 | 45.61679 | 4.43789 | 17101 ft | 393 kts | 229° |
| 2026-05-05 04:26 | 45.59930 | 4.40750 | 17811 ft | 399 kts | 229° |
| 2026-05-05 04:26 | 45.58156 | 4.37667 | 18496 ft | 403 kts | 228° |
| 2026-05-05 04:26 | 45.56393 | 4.34603 | 19166 ft | 406 kts | 228° |
| 2026-05-05 04:27 | 45.54592 | 4.31478 | 19852 ft | 409 kts | 228° |
| 2026-05-05 04:27 | 45.52753 | 4.28291 | 20555 ft | 412 kts | 228° |
| 2026-05-05 04:27 | 45.51041 | 4.25068 | 21291 ft | 414 kts | 232° |
| 2026-05-05 04:27 | 45.49360 | 4.21705 | 21935 ft | 418 kts | 231° |
| 2026-05-05 04:28 | 45.47661 | 4.18315 | 22528 ft | 423 kts | 231° |
| 2026-05-05 04:28 | 45.45938 | 4.14886 | 23068 ft | 429 kts | 231° |
| 2026-05-05 04:28 | 45.44186 | 4.11409 | 23601 ft | 434 kts | 231° |
| 2026-05-05 04:28 | 45.42419 | 4.07908 | 24127 ft | 437 kts | 231° |
| 2026-05-05 04:29 | 45.40635 | 4.04379 | 24697 ft | 439 kts | 231° |
| 2026-05-05 04:29 | 45.38845 | 4.00841 | 25248 ft | 442 kts | 231° |
| 2026-05-05 04:29 | 45.37043 | 3.97285 | 25771 ft | 445 kts | 230° |
| 2026-05-05 04:29 | 45.35225 | 3.93702 | 26272 ft | 448 kts | 230° |
| 2026-05-05 04:30 | 45.33386 | 3.90084 | 26767 ft | 452 kts | 230° |
| 2026-05-05 04:30 | 45.31533 | 3.86443 | 26930 ft | 457 kts | 230° |
| 2026-05-05 04:30 | 45.29692 | 3.82828 | 26917 ft | 458 kts | 230° |
| 2026-05-05 04:30 | 45.27826 | 3.79164 | 26910 ft | 458 kts | 230° |
| 2026-05-05 04:31 | 45.25958 | 3.75508 | 26906 ft | 458 kts | 230° |
| 2026-05-05 04:31 | 45.24103 | 3.71833 | 26910 ft | 458 kts | 231° |
| 2026-05-05 04:31 | 45.22275 | 3.68132 | 26907 ft | 458 kts | 231° |
| 2026-05-05 04:31 | 45.20459 | 3.64426 | 26911 ft | 458 kts | 231° |
| 2026-05-05 04:32 | 45.18639 | 3.60711 | 26907 ft | 458 kts | 231° |
| 2026-05-05 04:32 | 45.16822 | 3.57011 | 26913 ft | 458 kts | 231° |
| 2026-05-05 04:32 | 45.14997 | 3.53308 | 26914 ft | 458 kts | 231° |
| 2026-05-05 04:32 | 45.13167 | 3.49605 | 26912 ft | 458 kts | 232° |
| 2026-05-05 04:33 | 45.11341 | 3.45918 | 26914 ft | 458 kts | 232° |
| 2026-05-05 04:33 | 45.09508 | 3.42225 | 26916 ft | 458 kts | 232° |
| 2026-05-05 04:33 | 45.07673 | 3.38534 | 26915 ft | 458 kts | 232° |
| 2026-05-05 04:33 | 45.05836 | 3.34845 | 26916 ft | 458 kts | 232° |
| 2026-05-05 04:34 | 45.04000 | 3.31162 | 26914 ft | 458 kts | 232° |
| 2026-05-05 04:34 | 45.02163 | 3.27480 | 26919 ft | 458 kts | 232° |
| 2026-05-05 04:34 | 45.00329 | 3.23808 | 26919 ft | 458 kts | 232° |
| 2026-05-05 04:34 | 44.98514 | 3.20181 | 26915 ft | 458 kts | 232° |
| 2026-05-05 04:35 | 44.96675 | 3.16509 | 26915 ft | 458 kts | 232° |
| 2026-05-05 04:35 | 44.94837 | 3.12842 | 26918 ft | 458 kts | 232° |
| 2026-05-05 04:35 | 44.92998 | 3.09180 | 26920 ft | 457 kts | 232° |
| 2026-05-05 04:35 | 44.91156 | 3.05515 | 26918 ft | 457 kts | 232° |
| 2026-05-05 04:36 | 44.89311 | 3.01848 | 26930 ft | 458 kts | 232° |
| 2026-05-05 04:36 | 44.87471 | 2.98193 | 26930 ft | 458 kts | 232° |
| 2026-05-05 04:36 | 44.85624 | 2.94532 | 26921 ft | 457 kts | 232° |
| 2026-05-05 04:36 | 44.83791 | 2.90868 | 26915 ft | 458 kts | 233° |
| 2026-05-05 04:37 | 44.82029 | 2.87132 | 26913 ft | 458 kts | 234° |
| 2026-05-05 04:37 | 44.80305 | 2.83354 | 26919 ft | 458 kts | 234° |
| 2026-05-05 04:37 | 44.78597 | 2.79576 | 26924 ft | 458 kts | 234° |
| 2026-05-05 04:37 | 44.76881 | 2.75792 | 26919 ft | 458 kts | 234° |
| 2026-05-05 04:38 | 44.75161 | 2.72027 | 26915 ft | 458 kts | 234° |
| 2026-05-05 04:38 | 44.73430 | 2.68260 | 26921 ft | 458 kts | 234° |
| 2026-05-05 04:38 | 44.71697 | 2.64510 | 26937 ft | 458 kts | 234° |
| 2026-05-05 04:38 | 44.69957 | 2.60759 | 26928 ft | 458 kts | 234° |
| 2026-05-05 04:39 | 44.68216 | 2.57011 | 26927 ft | 458 kts | 234° |
| 2026-05-05 04:39 | 44.66473 | 2.53267 | 26932 ft | 458 kts | 234° |
| 2026-05-05 04:39 | 44.64752 | 2.49574 | 26942 ft | 458 kts | 234° |
| 2026-05-05 04:39 | 44.63006 | 2.45832 | 26938 ft | 457 kts | 234° |
| 2026-05-05 04:40 | 44.61261 | 2.42097 | 26941 ft | 457 kts | 234° |
| 2026-05-05 04:40 | 44.59520 | 2.38371 | 26939 ft | 457 kts | 234° |
| 2026-05-05 04:40 | 44.57774 | 2.34643 | 26936 ft | 456 kts | 234° |
| 2026-05-05 04:40 | 44.56028 | 2.30920 | 26934 ft | 456 kts | 234° |
| 2026-05-05 04:41 | 44.54287 | 2.27213 | 26964 ft | 455 kts | 234° |
| 2026-05-05 04:41 | 44.52564 | 2.23543 | 26898 ft | 446 kts | 234° |
| 2026-05-05 04:41 | 44.50861 | 2.19920 | 26333 ft | 444 kts | 234° |
| 2026-05-05 04:41 | 44.49170 | 2.16329 | 25783 ft | 439 kts | 234° |
| 2026-05-05 04:42 | 44.47496 | 2.12781 | 25207 ft | 435 kts | 234° |
| 2026-05-05 04:42 | 44.45835 | 2.09265 | 24619 ft | 431 kts | 234° |
| 2026-05-05 04:42 | 44.44187 | 2.05779 | 24057 ft | 427 kts | 234° |
| 2026-05-05 04:42 | 44.42554 | 2.02330 | 23494 ft | 424 kts | 234° |
| 2026-05-05 04:43 | 44.40932 | 1.98909 | 22829 ft | 420 kts | 234° |
| 2026-05-05 04:43 | 44.39323 | 1.95518 | 22258 ft | 416 kts | 234° |
| 2026-05-05 04:43 | 44.37733 | 1.92173 | 21698 ft | 411 kts | 234° |
| 2026-05-05 04:43 | 44.36160 | 1.88864 | 21183 ft | 406 kts | 234° |
| 2026-05-05 04:44 | 44.34602 | 1.85592 | 20631 ft | 402 kts | 234° |
| 2026-05-05 04:44 | 44.33061 | 1.82357 | 20119 ft | 399 kts | 234° |
| 2026-05-05 04:44 | 44.31529 | 1.79146 | 19609 ft | 395 kts | 234° |
| 2026-05-05 04:44 | 44.29994 | 1.75987 | 19087 ft | 390 kts | 232° |
| 2026-05-05 04:45 | 44.28109 | 1.73332 | 18644 ft | 380 kts | 214° |
| 2026-05-05 04:45 | 44.25910 | 1.71351 | 18286 ft | 376 kts | 213° |
| 2026-05-05 04:45 | 44.23712 | 1.69328 | 17847 ft | 381 kts | 214° |
| 2026-05-05 04:45 | 44.21536 | 1.67271 | 17434 ft | 384 kts | 214° |
| 2026-05-05 04:46 | 44.19340 | 1.65173 | 17014 ft | 382 kts | 214° |
| 2026-05-05 04:46 | 44.17159 | 1.63084 | 16617 ft | 379 kts | 214° |
| 2026-05-05 04:46 | 44.14988 | 1.61005 | 16215 ft | 377 kts | 215° |
| 2026-05-05 04:46 | 44.12830 | 1.58943 | 15832 ft | 375 kts | 215° |
| 2026-05-05 04:47 | 44.10682 | 1.56890 | 15433 ft | 373 kts | 215° |
| 2026-05-05 04:47 | 44.08543 | 1.54851 | 15035 ft | 372 kts | 215° |
| 2026-05-05 04:47 | 44.06413 | 1.52821 | 14659 ft | 370 kts | 215° |
| 2026-05-05 04:47 | 44.04295 | 1.50804 | 14280 ft | 369 kts | 215° |
| 2026-05-05 04:48 | 44.02182 | 1.48794 | 13900 ft | 368 kts | 215° |
| 2026-05-05 04:48 | 44.00072 | 1.46791 | 13485 ft | 367 kts | 215° |
| 2026-05-05 04:48 | 43.97906 | 1.44990 | 13057 ft | 362 kts | 204° |
| 2026-05-05 04:48 | 43.95504 | 1.44169 | 12687 ft | 358 kts | 189° |
| 2026-05-05 04:49 | 43.93003 | 1.43701 | 12365 ft | 356 kts | 191° |
| 2026-05-05 04:49 | 43.90602 | 1.43159 | 11955 ft | 351 kts | 192° |
| 2026-05-05 04:49 | 43.88211 | 1.42587 | 11578 ft | 345 kts | 192° |
| 2026-05-05 04:49 | 43.85861 | 1.42023 | 11215 ft | 340 kts | 192° |
| 2026-05-05 04:50 | 43.83553 | 1.41827 | 10833 ft | 332 kts | 174° |
| 2026-05-05 04:50 | 43.81363 | 1.42792 | 10516 ft | 332 kts | 155° |
| 2026-05-05 04:50 | 43.79467 | 1.44593 | 10195 ft | 330 kts | 144° |
| 2026-05-05 04:50 | 43.77708 | 1.46565 | 10021 ft | 319 kts | 144° |
| 2026-05-05 04:51 | 43.76011 | 1.48437 | 9957 ft | 305 kts | 145° |
| 2026-05-05 04:51 | 43.74347 | 1.50244 | 9535 ft | 304 kts | 145° |
| 2026-05-05 04:51 | 43.72702 | 1.52019 | 9312 ft | 296 kts | 145° |
| 2026-05-05 04:51 | 43.71098 | 1.53747 | 8905 ft | 294 kts | 145° |
| 2026-05-05 04:52 | 43.69464 | 1.55500 | 8210 ft | 293 kts | 144° |
| 2026-05-05 04:52 | 43.67889 | 1.57195 | 7689 ft | 279 kts | 144° |
| 2026-05-05 04:52 | 43.66401 | 1.58794 | 7706 ft | 275 kts | 145° |
| 2026-05-05 04:52 | 43.64850 | 1.60451 | 7353 ft | 285 kts | 144° |
| 2026-05-05 04:53 | 43.63339 | 1.62071 | 7051 ft | 270 kts | 145° |
| 2026-05-05 04:53 | 43.61732 | 1.63221 | 6777 ft | 257 kts | 172° |
| 2026-05-05 04:53 | 43.59948 | 1.63262 | 6541 ft | 258 kts | 190° |
| 2026-05-05 04:53 | 43.58138 | 1.62931 | 6277 ft | 265 kts | 189° |
| 2026-05-05 04:54 | 43.56315 | 1.62627 | 6027 ft | 263 kts | 189° |
| 2026-05-05 04:54 | 43.54508 | 1.62326 | 5682 ft | 260 kts | 189° |
| 2026-05-05 04:54 | 43.52727 | 1.62033 | 5390 ft | 255 kts | 189° |
| 2026-05-05 04:54 | 43.50989 | 1.61747 | 5118 ft | 248 kts | 189° |
| 2026-05-05 04:55 | 43.49345 | 1.61230 | 4847 ft | 239 kts | 212° |
| 2026-05-05 04:55 | 43.48172 | 1.59695 | 4695 ft | 234 kts | 241° |
| 2026-05-05 04:55 | 43.47580 | 1.57655 | 4443 ft | 226 kts | 257° |
| 2026-05-05 04:55 | 43.47227 | 1.55572 | 4161 ft | 219 kts | 261° |
| 2026-05-05 04:56 | 43.47267 | 1.53567 | 3890 ft | 205 kts | 292° |
| 2026-05-05 04:56 | 43.48059 | 1.52073 | 3686 ft | 191 kts | 317° |
| 2026-05-05 04:56 | 43.49047 | 1.50809 | 3516 ft | 193 kts | 315° |
| 2026-05-05 04:56 | 43.50019 | 1.49578 | 3303 ft | 191 kts | 320° |
| 2026-05-05 04:57 | 43.51028 | 1.48479 | 3161 ft | 180 kts | 322° |
| 2026-05-05 04:57 | 43.51998 | 1.47471 | 3044 ft | 169 kts | 322° |
| 2026-05-05 04:57 | 43.52922 | 1.46516 | 2994 ft | 166 kts | 322° |
| 2026-05-05 04:57 | 43.53853 | 1.45553 | 2887 ft | 171 kts | 323° |
| 2026-05-05 04:58 | 43.54800 | 1.44572 | 2615 ft | 169 kts | 323° |
| 2026-05-05 04:58 | 43.55732 | 1.43606 | 2226 ft | 164 kts | 322° |
| 2026-05-05 04:58 | 43.56609 | 1.42698 | 1863 ft | 151 kts | 321° |
| 2026-05-05 04:58 | 43.57420 | 1.41854 | 1663 ft | 147 kts | 321° |
| 2026-05-05 04:59 | 43.58256 | 1.40987 | 1447 ft | 153 kts | 321° |
| 2026-05-05 04:59 | 43.59110 | 1.40102 | 1224 ft | 154 kts | 321° |
| 2026-05-05 04:59 | 43.59961 | 1.39220 | 1012 ft | 153 kts | 321° |
| 2026-05-05 04:59 | 43.60813 | 1.38336 | 808 ft | 153 kts | 320° |
| 2026-05-05 05:00 | 43.61375 | 1.37747 | 669 ft | 154 kts | 320° |
| 2026-05-05 05:00 | 43.62502 | 1.36575 | 488 ft | 142 kts | 323° |
| 2026-05-05 05:00 | 43.63199 | 1.35851 | 490 ft | 108 kts | 323° |
| 2026-05-05 05:00 | 43.63700 | 1.35335 | 494 ft | 72 kts | 323° |
| 2026-05-05 05:01 | 43.64001 | 1.35019 | 490 ft | 37 kts | 323° |
| 2026-05-05 05:01 | 43.64172 | 1.34843 | 489 ft | 29 kts | 323° |
| 2026-05-05 05:01 | 43.64327 | 1.34681 | 487 ft | 27 kts | 323° |
| 2026-05-05 05:01 | 43.64455 | 1.34707 | 495 ft | 19 kts | 49° |
| 2026-05-05 05:02 | 43.64534 | 1.34852 | 487 ft | 19 kts | 57° |
| 2026-05-05 05:02 | 43.64523 | 1.35026 | 496 ft | 19 kts | 109° |
| 2026-05-05 05:02 | 43.64479 | 1.35197 | 492 ft | 19 kts | 109° |
| 2026-05-05 05:02 | 43.64424 | 1.35359 | 490 ft | 19 kts | 134° |
| 2026-05-05 05:03 | 43.64319 | 1.35470 | 487 ft | 19 kts | 143° |
| 2026-05-05 05:03 | 43.64213 | 1.35580 | 488 ft | 19 kts | 142° |
| 2026-05-05 05:03 | 43.64108 | 1.35690 | 493 ft | 19 kts | 143° |
| 2026-05-05 05:03 | 43.64002 | 1.35799 | 487 ft | 19 kts | 143° |
| 2026-05-05 05:04 | 43.63896 | 1.35908 | 489 ft | 19 kts | 143° |
| 2026-05-05 05:04 | 43.63790 | 1.36017 | 489 ft | 19 kts | 142° |
| 2026-05-05 05:04 | 43.63684 | 1.36128 | 487 ft | 19 kts | 143° |
| 2026-05-05 05:04 | 43.63580 | 1.36238 | 489 ft | 19 kts | 142° |
| 2026-05-05 05:05 | 43.63474 | 1.36349 | 490 ft | 19 kts | 143° |
| 2026-05-05 05:05 | 43.63368 | 1.36457 | 489 ft | 19 kts | 143° |
| 2026-05-05 05:05 | 43.63297 | 1.36530 | 493 ft | 19 kts | 143° |
| 2026-05-05 05:05 | 43.63192 | 1.36639 | 489 ft | 19 kts | 143° |
| 2026-05-05 05:06 | 43.63086 | 1.36750 | 488 ft | 19 kts | 142° |
| 2026-05-05 05:06 | 43.62981 | 1.36860 | 493 ft | 19 kts | 142° |
| 2026-05-05 05:06 | 43.62875 | 1.36970 | 489 ft | 19 kts | 143° |
| 2026-05-05 05:06 | 43.62770 | 1.37079 | 489 ft | 19 kts | 143° |
| 2026-05-05 05:07 | 43.62664 | 1.37188 | 495 ft | 18 kts | 143° |
| 2026-05-05 05:07 | 43.62582 | 1.37274 | 488 ft | 10 kts | 142° |
| 2026-05-05 05:07 | 43.62564 | 1.37338 | 490 ft | 6 kts | 72° |
| 2026-05-05 05:07 | 43.62585 | 1.37385 | 489 ft | 2 kts | 56° |
| 2026-05-05 05:08 | 43.62585 | 1.37410 | 490 ft | 3 kts | 105° |
| 2026-05-05 05:08 | 43.62566 | 1.37441 | 490 ft | 3 kts | 136° |
| 2026-05-05 05:08 | 43.62555 | 1.37454 | 490 ft | 3 kts | 140° |
| 2026-05-05 05:08 | 43.62544 | 1.37466 | 487 ft | 0 kts | 142° |